Dades meteomassalio
Diari Summary for Gener 13, 2017 Units:  Metric    English   Both
« Previous Day
Next Day »
Diari Semanal Mensual Anual Personalitzat
  Maxima: Minima: Mijana:
Temperatura: 12.5 °C 4.1 °C 8.4 °C
Rosada: 7.8 °C -0.2 °C 2.9 °C
Humitat: 80 % 52 % 69 %
Velocitat del vent: 70.3 km/h 11.1 km/h 39.5 km/h
Racha vent: 70.3 km/h - -
Vent:- - NW
Pressio: 1024.3 hPa 1017.2 hPa -
Pluja: 0.0 mm    
Historical Graphs
 
 
Tabular Data for Gener 13, 2017
Time Temperature Dew Point Pressure Wind Wind Speed Wind Gust Humidity Rainfall Rate (Hourly) solar Conditions
00:02 12.5 °C 7.8 °C 1017.8 hPa WNW 24.1 km/h 24.1 km/h 73 % 0.0 mm 0.0 W/m2 CLR
00:07 12.4 °C 7.7 °C 1017.8 hPa WNW 18.5 km/h 18.5 km/h 73 % 0.0 mm 0.0 W/m2 CLR
00:12 12.5 °C 7.6 °C 1017.8 hPa WNW 14.8 km/h 14.8 km/h 72 % 0.0 mm 0.0 W/m2 CLR
00:17 12.4 °C 7.6 °C 1017.8 hPa WNW 13.0 km/h 13.0 km/h 72 % 0.0 mm 0.0 W/m2 CLR
00:22 12.4 °C 7.7 °C 1017.8 hPa WNW 11.1 km/h 11.1 km/h 73 % 0.0 mm 0.0 W/m2 CLR
00:27 12.3 °C 7.6 °C 1017.8 hPa WNW 11.3 km/h 11.3 km/h 73 % 0.0 mm 0.0 W/m2 CLR
00:32 12.3 °C 7.6 °C 1017.8 hPa West 14.8 km/h 14.8 km/h 73 % 0.0 mm 0.0 W/m2 CLR
00:37 12.2 °C 7.5 °C 1017.8 hPa WNW 20.4 km/h 20.4 km/h 73 % 0.0 mm 0.0 W/m2 CLR
00:42 12.2 °C 7.7 °C 1017.8 hPa West 14.8 km/h 14.8 km/h 74 % 0.0 mm 0.0 W/m2 CLR
00:47 12.1 °C 7.6 °C 1017.8 hPa West 13.0 km/h 13.0 km/h 74 % 0.0 mm 0.0 W/m2 CLR
00:52 12.1 °C 7.6 °C 1017.5 hPa WNW 14.8 km/h 14.8 km/h 74 % 0.0 mm 0.0 W/m2 CLR
00:57 12.1 °C 7.6 °C 1017.5 hPa WNW 13.0 km/h 13.0 km/h 74 % 0.0 mm 0.0 W/m2 CLR
01:02 12.1 °C 7.6 °C 1017.5 hPa West 13.0 km/h 13.0 km/h 74 % 0.0 mm 0.0 W/m2 CLR
01:07 12.0 °C 7.5 °C 1017.5 hPa WNW 14.8 km/h 14.8 km/h 74 % 0.0 mm 0.0 W/m2 CLR
01:12 11.9 °C 7.4 °C 1017.5 hPa WNW 16.7 km/h 16.7 km/h 74 % 0.0 mm 0.0 W/m2 CLR
01:17 12.0 °C 7.5 °C 1017.5 hPa WNW 18.5 km/h 18.5 km/h 74 % 0.0 mm 0.0 W/m2 CLR
01:22 12.1 °C 7.6 °C 1017.5 hPa WNW 20.4 km/h 20.4 km/h 74 % 0.0 mm 0.0 W/m2 CLR
01:27 12.0 °C 7.5 °C 1017.5 hPa WNW 16.7 km/h 16.7 km/h 74 % 0.0 mm 0.0 W/m2 CLR
01:32 11.9 °C 7.4 °C 1017.5 hPa WNW 14.8 km/h 14.8 km/h 74 % 0.0 mm 0.0 W/m2 CLR
01:37 11.8 °C 7.6 °C 1017.5 hPa WNW 16.7 km/h 16.7 km/h 75 % 0.0 mm 0.0 W/m2 CLR
01:42 11.8 °C 7.5 °C 1017.2 hPa WNW 17.7 km/h 17.7 km/h 75 % 0.0 mm 0.0 W/m2 CLR
01:47 11.8 °C 7.5 °C 1017.2 hPa WNW 22.2 km/h 22.2 km/h 75 % 0.0 mm 0.0 W/m2 CLR
01:52 11.8 °C 7.5 °C 1017.2 hPa WNW 16.7 km/h 16.7 km/h 75 % 0.0 mm 0.0 W/m2 CLR
01:57 11.7 °C 7.4 °C 1017.2 hPa WNW 14.5 km/h 14.5 km/h 75 % 0.0 mm 0.0 W/m2 CLR
02:02 11.6 °C 7.3 °C 1017.2 hPa WNW 12.9 km/h 12.9 km/h 75 % 0.0 mm 0.0 W/m2 CLR
02:07 11.3 °C 7.3 °C 1017.2 hPa WNW 19.3 km/h 19.3 km/h 76 % 0.0 mm 0.0 W/m2 CLR
02:12 11.4 °C 7.3 °C 1017.2 hPa NW 24.1 km/h 24.1 km/h 76 % 0.0 mm 0.0 W/m2 CLR
02:17 11.4 °C 7.3 °C 1017.2 hPa NW 24.1 km/h 24.1 km/h 76 % 0.0 mm 0.0 W/m2 CLR
02:22 11.4 °C 7.3 °C 1017.2 hPa NW 22.5 km/h 22.5 km/h 76 % 0.0 mm 0.0 W/m2 CLR
02:27 11.3 °C 7.3 °C 1017.2 hPa NW 22.2 km/h 22.2 km/h 76 % 0.0 mm 0.0 W/m2 CLR
02:32 11.3 °C 7.4 °C 1017.2 hPa NW 27.4 km/h 27.4 km/h 77 % 0.0 mm 0.0 W/m2 CLR
02:37 11.3 °C 7.4 °C 1017.2 hPa NW 31.5 km/h 31.5 km/h 77 % 0.0 mm 0.0 W/m2 CLR
02:42 11.4 °C 7.3 °C 1017.2 hPa NW 31.5 km/h 31.5 km/h 76 % 0.0 mm 0.0 W/m2 CLR
02:47 11.4 °C 7.3 °C 1017.2 hPa NW 31.5 km/h 31.5 km/h 76 % 0.0 mm 0.0 W/m2 CLR
02:52 11.4 °C 7.5 °C 1017.5 hPa NW 27.8 km/h 27.8 km/h 77 % 0.0 mm 0.0 W/m2 CLR
02:57 11.4 °C 7.3 °C 1017.5 hPa NW 31.5 km/h 31.5 km/h 76 % 0.0 mm 0.0 W/m2 CLR
03:02 11.5 °C 7.4 °C 1017.5 hPa NW 27.8 km/h 27.8 km/h 76 % 0.0 mm 0.0 W/m2 CLR
03:07 11.5 °C 7.4 °C 1017.5 hPa NW 29.6 km/h 29.6 km/h 76 % 0.0 mm 0.0 W/m2 CLR
03:12 11.4 °C 7.2 °C 1017.8 hPa NW 29.6 km/h 29.6 km/h 75 % 0.0 mm 0.0 W/m2 CLR
03:17 11.4 °C 7.3 °C 1017.8 hPa NW 25.9 km/h 25.9 km/h 76 % 0.0 mm 0.0 W/m2 CLR
03:22 11.3 °C 7.3 °C 1017.8 hPa NW 35.2 km/h 35.2 km/h 76 % 0.0 mm 0.0 W/m2 CLR
03:27 11.3 °C 7.2 °C 1017.8 hPa NW 33.3 km/h 33.3 km/h 76 % 0.0 mm 0.0 W/m2 CLR
03:32 11.2 °C 7.2 °C 1017.5 hPa NW 27.4 km/h 27.4 km/h 76 % 0.0 mm 0.0 W/m2 CLR
03:37 11.1 °C 7.1 °C 1017.5 hPa NW 24.1 km/h 24.1 km/h 76 % 0.0 mm 0.0 W/m2 CLR
03:42 11.1 °C 7.0 °C 1017.5 hPa NW 29.6 km/h 29.6 km/h 76 % 0.0 mm 0.0 W/m2 CLR
03:47 11.0 °C 6.7 °C 1017.5 hPa NW 29.0 km/h 29.0 km/h 75 % 0.0 mm 0.0 W/m2 CLR
03:52 10.9 °C 6.7 °C 1017.5 hPa NW 31.5 km/h 31.5 km/h 75 % 0.0 mm 0.0 W/m2 CLR
03:57 10.8 °C 6.6 °C 1017.5 hPa NW 29.0 km/h 29.0 km/h 75 % 0.0 mm 0.0 W/m2 CLR
04:02 10.8 °C 6.4 °C 1017.5 hPa NW 31.5 km/h 31.5 km/h 74 % 0.0 mm 0.0 W/m2 CLR
04:07 10.8 °C 6.3 °C 1017.5 hPa NW 37.0 km/h 37.0 km/h 74 % 0.0 mm 0.0 W/m2 CLR
04:12 10.7 °C 6.3 °C 1017.5 hPa NW 31.5 km/h 31.5 km/h 74 % 0.0 mm 0.0 W/m2 CLR
04:17 10.6 °C 6.2 °C 1017.5 hPa NW 46.3 km/h 46.3 km/h 74 % 0.0 mm 0.0 W/m2 CLR
04:22 10.6 °C 6.3 °C 1017.5 hPa NW 29.6 km/h 29.6 km/h 75 % 0.0 mm 0.0 W/m2 CLR
04:27 10.6 °C 6.3 °C 1017.5 hPa NW 29.0 km/h 29.0 km/h 75 % 0.0 mm 0.0 W/m2 CLR
04:32 10.5 °C 6.3 °C 1017.5 hPa NNW 42.6 km/h 42.6 km/h 75 % 0.0 mm 0.0 W/m2 CLR
04:37 10.5 °C 6.3 °C 1017.5 hPa NNW 35.2 km/h 35.2 km/h 75 % 0.0 mm 0.0 W/m2 CLR
04:42 10.4 °C 6.2 °C 1017.8 hPa NW 38.9 km/h 38.9 km/h 75 % 0.0 mm 0.0 W/m2 CLR
04:47 10.3 °C 6.3 °C 1017.8 hPa NNW 31.5 km/h 31.5 km/h 76 % 0.0 mm 0.0 W/m2 CLR
04:48 10.3 °C 6.3 °C 1017.8 hPa NNW 31.5 km/h 31.5 km/h 76 % 0.0 mm 0.0 W/m2 CLR
04:53 10.2 °C 6.2 °C 1017.8 hPa NNW 35.4 km/h 35.4 km/h 76 % 0.0 mm 0.0 W/m2 CLR
04:58 10.1 °C 6.1 °C 1017.8 hPa NW 38.9 km/h 38.9 km/h 76 % 0.0 mm 0.0 W/m2 CLR
05:03 10.0 °C 5.8 °C 1017.8 hPa NW 48.1 km/h 48.1 km/h 75 % 0.0 mm 0.0 W/m2 CLR
05:08 9.8 °C 5.9 °C 1017.8 hPa NW 46.3 km/h 46.3 km/h 77 % 0.0 mm 0.0 W/m2 CLR
05:13 9.7 °C 5.7 °C 1017.8 hPa NW 33.3 km/h 33.3 km/h 76 % 0.0 mm 0.0 W/m2 CLR
05:18 9.7 °C 5.6 °C 1017.8 hPa NW 29.6 km/h 29.6 km/h 76 % 0.0 mm 0.0 W/m2 CLR
05:23 9.6 °C 5.7 °C 1017.5 hPa NW 35.2 km/h 35.2 km/h 77 % 0.0 mm 0.0 W/m2 CLR
05:28 9.4 °C 5.4 °C 1017.5 hPa NW 37.0 km/h 37.0 km/h 76 % 0.0 mm 0.0 W/m2 CLR
05:33 9.3 °C 5.1 °C 1017.8 hPa NW 42.6 km/h 42.6 km/h 75 % 0.0 mm 0.0 W/m2 CLR
05:38 9.2 °C 5.0 °C 1017.8 hPa NW 31.5 km/h 31.5 km/h 75 % 0.0 mm 0.0 W/m2 CLR
05:43 9.2 °C 5.0 °C 1017.8 hPa NW 38.9 km/h 38.9 km/h 75 % 0.0 mm 0.0 W/m2 CLR
05:48 9.2 °C 4.9 °C 1017.8 hPa NW 35.2 km/h 35.2 km/h 75 % 0.0 mm 0.0 W/m2 CLR
05:53 9.1 °C 4.7 °C 1017.8 hPa NW 37.0 km/h 37.0 km/h 74 % 0.0 mm 0.0 W/m2 CLR
05:58 9.1 °C 4.8 °C 1018.2 hPa NW 38.9 km/h 38.9 km/h 75 % 0.0 mm 0.0 W/m2 CLR
06:03 9.0 °C 4.8 °C 1017.8 hPa NW 40.7 km/h 40.7 km/h 75 % 0.0 mm 0.0 W/m2 CLR
06:08 9.0 °C 4.8 °C 1018.2 hPa NW 37.0 km/h 37.0 km/h 75 % 0.0 mm 0.0 W/m2 CLR
06:13 8.9 °C 4.7 °C 1018.2 hPa NW 35.4 km/h 35.4 km/h 75 % 0.0 mm 0.0 W/m2 CLR
06:18 8.8 °C 4.8 °C 1018.2 hPa NW 29.6 km/h 29.6 km/h 76 % 0.0 mm 0.0 W/m2 CLR
06:23 8.8 °C 4.8 °C 1018.2 hPa NW 38.9 km/h 38.9 km/h 76 % 0.0 mm 0.0 W/m2 CLR
06:28 8.7 °C 5.1 °C 1018.5 hPa NW 25.9 km/h 25.9 km/h 78 % 0.0 mm 0.0 W/m2 CLR
06:33 8.6 °C 4.9 °C 1018.5 hPa NW 42.6 km/h 42.6 km/h 78 % 0.0 mm 0.0 W/m2 CLR
06:38 8.4 °C 4.9 °C 1018.5 hPa NW 31.5 km/h 31.5 km/h 79 % 0.0 mm 0.0 W/m2 CLR
06:43 8.4 °C 4.9 °C 1018.5 hPa NW 33.3 km/h 33.3 km/h 79 % 0.0 mm 0.0 W/m2 CLR
06:48 8.3 °C 4.9 °C 1018.2 hPa NW 31.5 km/h 31.5 km/h 79 % 0.0 mm 0.0 W/m2 CLR
06:53 8.4 °C 4.8 °C 1018.5 hPa NW 31.5 km/h 31.5 km/h 78 % 0.0 mm 0.0 W/m2 CLR
06:58 8.3 °C 4.9 °C 1018.5 hPa NW 31.5 km/h 31.5 km/h 79 % 0.0 mm 0.0 W/m2 CLR
07:03 8.3 °C 4.9 °C 1018.2 hPa NW 31.5 km/h 31.5 km/h 79 % 0.0 mm 0.0 W/m2 CLR
07:08 8.3 °C 4.8 °C 1018.5 hPa NW 40.7 km/h 40.7 km/h 79 % 0.0 mm 0.0 W/m2 CLR
07:13 8.3 °C 4.7 °C 1018.5 hPa NW 29.6 km/h 29.6 km/h 78 % 0.0 mm 0.0 W/m2 CLR
07:18 8.3 °C 4.7 °C 1018.5 hPa NW 38.9 km/h 38.9 km/h 78 % 0.0 mm 0.0 W/m2 CLR
07:23 8.3 °C 4.3 °C 1018.5 hPa NW 40.7 km/h 40.7 km/h 76 % 0.0 mm 0.0 W/m2 CLR
07:28 8.3 °C 4.2 °C 1018.8 hPa NW 40.7 km/h 40.7 km/h 75 % 0.0 mm 0.0 W/m2 CLR
07:33 8.3 °C 3.9 °C 1018.8 hPa NW 46.3 km/h 46.3 km/h 74 % 0.0 mm 0.0 W/m2 CLR
07:38 8.3 °C 3.9 °C 1018.8 hPa NW 37.0 km/h 37.0 km/h 74 % 0.0 mm 0.0 W/m2 CLR
07:43 8.3 °C 3.7 °C 1018.8 hPa NW 46.3 km/h 46.3 km/h 73 % 0.0 mm 0.0 W/m2 CLR
07:48 8.2 °C 3.4 °C 1019.2 hPa NW 49.9 km/h 49.9 km/h 72 % 0.0 mm 0.0 W/m2 CLR
07:53 8.2 °C 3.1 °C 1018.8 hPa NW 46.3 km/h 46.3 km/h 70 % 0.0 mm 0.0 W/m2 CLR
07:58 8.2 °C 3.0 °C 1018.8 hPa NW 46.7 km/h 46.7 km/h 70 % 0.0 mm 0.0 W/m2 CLR
08:03 8.1 °C 2.8 °C 1018.8 hPa NW 48.1 km/h 48.1 km/h 69 % 0.0 mm 0.0 W/m2 CLR
08:08 8.0 °C 2.4 °C 1019.2 hPa NW 48.3 km/h 48.3 km/h 68 % 0.0 mm 0.0 W/m2 CLR
08:13 8.0 °C 2.7 °C 1019.2 hPa NW 46.3 km/h 46.3 km/h 69 % 0.0 mm 0.0 W/m2 CLR
08:18 8.0 °C 2.4 °C 1019.5 hPa NW 55.5 km/h 55.5 km/h 68 % 0.0 mm 0.0 W/m2
08:23 8.0 °C 2.4 °C 1019.5 hPa NW 55.5 km/h 55.5 km/h 68 % 0.0 mm 0.0 W/m2 OVC
08:28 7.9 °C 2.8 °C 1019.5 hPa NW 46.3 km/h 46.3 km/h 70 % 0.0 mm 0.0 W/m2 OVC
08:33 7.9 °C 2.9 °C 1019.5 hPa NW 42.6 km/h 42.6 km/h 71 % 0.0 mm 7.0 W/m2 BKN
08:38 7.8 °C 2.9 °C 1019.5 hPa NW 46.3 km/h 46.3 km/h 71 % 0.0 mm 12.0 W/m2 BKN
08:43 7.8 °C 2.8 °C 1019.5 hPa NW 53.7 km/h 53.7 km/h 71 % 0.0 mm 12.0 W/m2 BKN
08:48 7.7 °C 2.4 °C 1019.5 hPa NW 55.5 km/h 55.5 km/h 69 % 0.0 mm 12.0 W/m2 BKN
08:53 7.6 °C 2.7 °C 1019.5 hPa NW 50.0 km/h 50.0 km/h 71 % 0.0 mm 18.0 W/m2 BKN
08:59 7.6 °C 2.7 °C 1019.5 hPa NW 37.0 km/h 37.0 km/h 71 % 0.0 mm 19.0 W/m2 BKN
09:04 7.6 °C 2.6 °C 1019.9 hPa NW 48.1 km/h 48.1 km/h 71 % 0.0 mm 35.0 W/m2 BKN
09:09 7.6 °C 2.6 °C 1019.9 hPa NW 40.7 km/h 40.7 km/h 71 % 0.0 mm 42.0 W/m2 BKN
09:14 7.4 °C 2.5 °C 1019.9 hPa NW 44.4 km/h 44.4 km/h 71 % 0.0 mm 46.0 W/m2 BKN
09:19 7.3 °C 2.2 °C 1020.2 hPa NW 57.4 km/h 57.4 km/h 70 % 0.0 mm 28.0 W/m2 BKN
09:24 7.3 °C 2.2 °C 1020.2 hPa NW 55.5 km/h 55.5 km/h 70 % 0.0 mm 63.0 W/m2 BKN
09:29 7.3 °C 2.0 °C 1020.2 hPa NW 51.8 km/h 51.8 km/h 69 % 0.0 mm 91.0 W/m2 BKN
09:34 7.4 °C 2.1 °C 1020.2 hPa NW 40.7 km/h 40.7 km/h 69 % 0.0 mm 104.0 W/m2 BKN
09:39 7.4 °C 1.9 °C 1020.5 hPa NW 59.2 km/h 59.2 km/h 68 % 0.0 mm 98.0 W/m2 BKN
09:44 7.5 °C 1.9 °C 1020.5 hPa NW 46.3 km/h 46.3 km/h 68 % 0.0 mm 120.0 W/m2 BKN
09:49 7.5 °C 1.9 °C 1020.5 hPa NNW 53.7 km/h 53.7 km/h 68 % 0.0 mm 116.0 W/m2 BKN
09:54 7.6 °C 2.0 °C 1020.9 hPa NNW 37.0 km/h 37.0 km/h 68 % 0.0 mm 104.0 W/m2 BKN
09:59 7.6 °C 1.9 °C 1020.9 hPa NW 49.9 km/h 49.9 km/h 67 % 0.0 mm 165.0 W/m2 BKN
10:04 7.7 °C 1.9 °C 1020.9 hPa NW 37.0 km/h 37.0 km/h 67 % 0.0 mm 109.0 W/m2 BKN
10:09 7.7 °C 2.0 °C 1020.9 hPa NW 43.4 km/h 43.4 km/h 67 % 0.0 mm 163.0 W/m2 BKN
10:14 7.7 °C 2.0 °C 1020.9 hPa NNW 51.8 km/h 51.8 km/h 67 % 0.0 mm 214.0 W/m2 BKN
10:19 7.8 °C 2.1 °C 1020.5 hPa NNW 44.4 km/h 44.4 km/h 67 % 0.0 mm 234.0 W/m2 SCT
10:24 7.8 °C 2.1 °C 1020.5 hPa NNW 48.1 km/h 48.1 km/h 67 % 0.0 mm 250.0 W/m2 SCT
10:29 7.8 °C 2.1 °C 1020.2 hPa NNW 57.9 km/h 57.9 km/h 67 % 0.0 mm 262.0 W/m2 SCT
10:34 7.9 °C 2.1 °C 1020.2 hPa NW 55.5 km/h 55.5 km/h 67 % 0.0 mm 274.0 W/m2 SCT
10:39 7.9 °C 2.1 °C 1020.5 hPa NW 55.5 km/h 55.5 km/h 67 % 0.0 mm 285.0 W/m2 SCT
10:44 8.0 °C 2.2 °C 1020.5 hPa NW 46.3 km/h 46.3 km/h 67 % 0.0 mm 294.0 W/m2 SCT
10:49 8.1 °C 2.1 °C 1020.5 hPa NNW 55.5 km/h 55.5 km/h 66 % 0.0 mm 304.0 W/m2 SCT
10:54 8.2 °C 2.2 °C 1020.5 hPa NNW 50.0 km/h 50.0 km/h 66 % 0.0 mm 315.0 W/m2 SCT
10:59 8.3 °C 2.3 °C 1020.5 hPa NW 54.7 km/h 54.7 km/h 66 % 0.0 mm 323.0 W/m2 FEW
11:04 8.3 °C 1.9 °C 1020.9 hPa NW 53.7 km/h 53.7 km/h 64 % 0.0 mm 330.0 W/m2 FEW
11:09 8.3 °C 2.1 °C 1020.5 hPa NW 59.5 km/h 59.5 km/h 65 % 0.0 mm 346.0 W/m2 FEW
11:14 8.3 °C 2.1 °C 1020.5 hPa NW 53.1 km/h 53.1 km/h 65 % 0.0 mm 352.0 W/m2 FEW
11:19 8.4 °C 2.2 °C 1020.2 hPa NW 48.1 km/h 48.1 km/h 65 % 0.0 mm 359.0 W/m2 FEW
11:24 8.4 °C 1.5 °C 1020.5 hPa NNW 57.4 km/h 57.4 km/h 62 % 0.0 mm 369.0 W/m2 FEW
11:29 8.3 °C 1.4 °C 1020.9 hPa NW 53.7 km/h 53.7 km/h 62 % 0.0 mm 376.0 W/m2 FEW
11:34 8.4 °C 1.3 °C 1020.5 hPa NW 55.5 km/h 55.5 km/h 61 % 0.0 mm 383.0 W/m2 FEW
11:39 8.5 °C 1.4 °C 1020.5 hPa NW 61.1 km/h 61.1 km/h 61 % 0.0 mm 392.0 W/m2 FEW
11:44 8.6 °C 1.1 °C 1020.9 hPa NW 64.8 km/h 64.8 km/h 59 % 0.0 mm 397.0 W/m2 FEW
11:49 8.7 °C 1.1 °C 1020.9 hPa NNW 53.7 km/h 53.7 km/h 59 % 0.0 mm 404.0 W/m2 FEW
11:54 8.7 °C 1.2 °C 1020.5 hPa NNW 55.5 km/h 55.5 km/h 59 % 0.0 mm 408.0 W/m2 FEW
11:59 8.8 °C 1.2 °C 1020.5 hPa NNW 57.4 km/h 57.4 km/h 59 % 0.0 mm 417.0 W/m2 FEW
12:04 8.9 °C 1.1 °C 1020.5 hPa NW 62.9 km/h 62.9 km/h 58 % 0.0 mm 422.0 W/m2 CLR
12:09 8.7 °C 0.9 °C 1020.5 hPa NW 55.5 km/h 55.5 km/h 58 % 0.0 mm 432.0 W/m2 CLR
12:14 8.8 °C 1.4 °C 1020.5 hPa NW 70.3 km/h 70.3 km/h 60 % 0.0 mm 441.0 W/m2 CLR
12:19 8.9 °C 1.8 °C 1020.2 hPa NW 42.6 km/h 42.6 km/h 61 % 0.0 mm 438.0 W/m2 CLR
12:24 8.8 °C 1.7 °C 1020.2 hPa NW 57.4 km/h 57.4 km/h 61 % 0.0 mm 441.0 W/m2 CLR
12:29 8.8 °C 1.5 °C 1019.9 hPa NW 55.5 km/h 55.5 km/h 60 % 0.0 mm 446.0 W/m2 CLR
12:34 8.8 °C 1.2 °C 1020.2 hPa NW 55.5 km/h 55.5 km/h 59 % 0.0 mm 452.0 W/m2 CLR
12:39 8.9 °C 1.6 °C 1020.2 hPa NW 57.9 km/h 57.9 km/h 60 % 0.0 mm 450.0 W/m2 CLR
12:44 8.8 °C 1.7 °C 1020.2 hPa NW 55.5 km/h 55.5 km/h 61 % 0.0 mm 452.0 W/m2 CLR
12:49 8.8 °C 1.5 °C 1020.2 hPa NW 55.5 km/h 55.5 km/h 60 % 0.0 mm 464.0 W/m2 CLR
12:54 9.0 °C 1.7 °C 1020.2 hPa NW 50.0 km/h 50.0 km/h 60 % 0.0 mm 462.0 W/m2 CLR
12:59 9.1 °C 1.3 °C 1020.2 hPa NW 50.0 km/h 50.0 km/h 58 % 0.0 mm 466.0 W/m2 CLR
13:04 9.3 °C 1.4 °C 1020.2 hPa NW 55.5 km/h 55.5 km/h 58 % 0.0 mm 496.0 W/m2 CLR
13:09 9.3 °C 1.2 °C 1020.2 hPa NW 61.1 km/h 61.1 km/h 57 % 0.0 mm 462.0 W/m2 CLR
13:15 9.2 °C 1.1 °C 1019.9 hPa NW 48.1 km/h 48.1 km/h 57 % 0.0 mm 468.0 W/m2 CLR
13:20 9.2 °C 1.1 °C 1020.2 hPa NNW 57.9 km/h 57.9 km/h 57 % 0.0 mm 476.0 W/m2 CLR
13:25 9.2 °C 0.9 °C 1019.9 hPa NNW 48.3 km/h 48.3 km/h 56 % 0.0 mm 473.0 W/m2 CLR
13:30 9.1 °C 1.1 °C 1019.9 hPa NNW 51.8 km/h 51.8 km/h 57 % 0.0 mm 476.0 W/m2 CLR
13:35 9.0 °C 0.7 °C 1020.2 hPa NW 61.1 km/h 61.1 km/h 56 % 0.0 mm 455.0 W/m2 CLR
13:40 9.1 °C 1.0 °C 1020.2 hPa NW 50.0 km/h 50.0 km/h 57 % 0.0 mm 461.0 W/m2 CLR
13:45 9.2 °C 1.1 °C 1020.2 hPa NW 42.6 km/h 42.6 km/h 57 % 0.0 mm 478.0 W/m2 CLR
13:50 9.0 °C 0.9 °C 1019.9 hPa NW 62.9 km/h 62.9 km/h 57 % 0.0 mm 448.0 W/m2 CLR
13:55 9.1 °C 1.3 °C 1019.9 hPa NW 46.3 km/h 46.3 km/h 58 % 0.0 mm 462.0 W/m2 CLR
14:00 9.2 °C 0.8 °C 1019.9 hPa NW 68.5 km/h 68.5 km/h 56 % 0.0 mm 438.0 W/m2 CLR
14:05 9.2 °C 0.8 °C 1019.9 hPa NW 57.4 km/h 57.4 km/h 56 % 0.0 mm 438.0 W/m2 CLR
14:10 9.3 °C 1.2 °C 1019.9 hPa NW 42.6 km/h 42.6 km/h 57 % 0.0 mm 452.0 W/m2 CLR
14:15 9.5 °C 0.9 °C 1019.9 hPa NNW 62.8 km/h 62.8 km/h 55 % 0.0 mm 503.0 W/m2 CLR
14:20 9.5 °C 1.2 °C 1019.9 hPa NNW 37.0 km/h 37.0 km/h 56 % 0.0 mm 425.0 W/m2 CLR
14:25 9.4 °C 0.6 °C 1019.9 hPa NW 44.4 km/h 44.4 km/h 54 % 0.0 mm 415.0 W/m2 CLR
14:30 9.3 °C 0.5 °C 1019.9 hPa NW 55.5 km/h 55.5 km/h 54 % 0.0 mm 411.0 W/m2 CLR
14:35 9.4 °C 0.0 °C 1019.9 hPa NW 62.9 km/h 62.9 km/h 52 % 0.0 mm 399.0 W/m2 CLR
14:40 9.2 °C -0.1 °C 1020.2 hPa NNW 59.5 km/h 59.5 km/h 52 % 0.0 mm 367.0 W/m2 CLR
14:45 9.2 °C 0.3 °C 1020.2 hPa NNW 51.8 km/h 51.8 km/h 54 % 0.0 mm 387.0 W/m2 CLR
14:50 9.2 °C 0.3 °C 1019.9 hPa NW 55.5 km/h 55.5 km/h 54 % 0.0 mm 381.0 W/m2 CLR
14:55 9.2 °C 0.4 °C 1019.9 hPa NW 46.3 km/h 46.3 km/h 54 % 0.0 mm 369.0 W/m2 CLR
15:00 9.3 °C 0.5 °C 1019.9 hPa NNW 40.7 km/h 40.7 km/h 54 % 0.0 mm 367.0 W/m2 CLR
15:05 9.4 °C 0.6 °C 1019.9 hPa NNW 50.0 km/h 50.0 km/h 54 % 0.0 mm 360.0 W/m2 CLR
15:10 9.5 °C 0.7 °C 1019.9 hPa NW 45.1 km/h 45.1 km/h 54 % 0.0 mm 348.0 W/m2 CLR
15:15 9.3 °C 0.5 °C 1019.9 hPa NW 43.4 km/h 43.4 km/h 54 % 0.0 mm 346.0 W/m2 CLR
15:20 9.2 °C 0.1 °C 1020.2 hPa NW 53.7 km/h 53.7 km/h 53 % 0.0 mm 334.0 W/m2 CLR
15:25 9.2 °C 0.4 °C 1020.2 hPa NW 42.6 km/h 42.6 km/h 54 % 0.0 mm 322.0 W/m2 CLR
15:30 9.3 °C 0.5 °C 1019.9 hPa NW 31.5 km/h 31.5 km/h 54 % 0.0 mm 311.0 W/m2 CLR
15:35 9.4 °C 0.8 °C 1019.9 hPa NNW 37.0 km/h 37.0 km/h 55 % 0.0 mm 306.0 W/m2 CLR
15:40 9.4 °C 0.8 °C 1019.9 hPa NW 40.7 km/h 40.7 km/h 55 % 0.0 mm 295.0 W/m2 CLR
15:45 9.3 °C 1.0 °C 1019.9 hPa NW 27.8 km/h 27.8 km/h 56 % 0.0 mm 279.0 W/m2 CLR
15:50 9.3 °C 0.7 °C 1019.9 hPa NW 48.1 km/h 48.1 km/h 55 % 0.0 mm 271.0 W/m2 CLR
15:55 9.1 °C 0.8 °C 1019.9 hPa NW 40.7 km/h 40.7 km/h 56 % 0.0 mm 258.0 W/m2 CLR
16:00 9.1 °C 0.8 °C 1019.9 hPa NNW 48.1 km/h 48.1 km/h 56 % 0.0 mm 246.0 W/m2 CLR
16:05 9.1 °C 0.7 °C 1020.2 hPa NW 46.3 km/h 46.3 km/h 56 % 0.0 mm 232.0 W/m2 CLR
16:10 9.0 °C 0.9 °C 1020.2 hPa NW 40.7 km/h 40.7 km/h 57 % 0.0 mm 218.0 W/m2 CLR
16:15 9.0 °C 0.7 °C 1020.2 hPa NW 48.1 km/h 48.1 km/h 56 % 0.0 mm 190.0 W/m2 CLR
16:20 8.9 °C 0.9 °C 1020.2 hPa NW 42.6 km/h 42.6 km/h 57 % 0.0 mm 186.0 W/m2 CLR
16:25 8.8 °C 0.8 °C 1020.2 hPa NW 44.4 km/h 44.4 km/h 57 % 0.0 mm 174.0 W/m2 CLR
16:30 8.8 °C 0.7 °C 1020.2 hPa NW 56.3 km/h 56.3 km/h 57 % 0.0 mm 158.0 W/m2 CLR
16:35 8.7 °C 0.9 °C 1019.9 hPa NW 55.5 km/h 55.5 km/h 58 % 0.0 mm 142.0 W/m2 CLR
16:40 8.6 °C 0.6 °C 1020.2 hPa NW 57.4 km/h 57.4 km/h 57 % 0.0 mm 125.0 W/m2 CLR
16:45 8.6 °C 0.5 °C 1020.2 hPa NW 53.7 km/h 53.7 km/h 57 % 0.0 mm 113.0 W/m2 CLR
16:50 8.5 °C 0.2 °C 1020.2 hPa NW 33.3 km/h 33.3 km/h 56 % 0.0 mm 100.0 W/m2 CLR
16:56 8.4 °C 0.3 °C 1020.5 hPa NW 55.5 km/h 55.5 km/h 57 % 0.0 mm 86.0 W/m2 CLR
17:01 8.3 °C 0.3 °C 1020.5 hPa NW 50.0 km/h 50.0 km/h 57 % 0.0 mm 72.0 W/m2 CLR
17:06 8.3 °C 0.3 °C 1020.5 hPa NW 51.8 km/h 51.8 km/h 57 % 0.0 mm 62.0 W/m2 CLR
17:11 8.3 °C 0.0 °C 1020.5 hPa NW 55.5 km/h 55.5 km/h 56 % 0.0 mm 49.0 W/m2 OVC
17:16 8.2 °C -0.1 °C 1020.5 hPa NW 38.9 km/h 38.9 km/h 56 % 0.0 mm 39.0 W/m2 OVC
17:21 8.1 °C -0.2 °C 1020.5 hPa NW 50.0 km/h 50.0 km/h 56 % 0.0 mm 26.0 W/m2 OVC
17:26 7.9 °C -0.1 °C 1020.5 hPa NW 57.4 km/h 57.4 km/h 57 % 0.0 mm 19.0 W/m2
17:31 7.8 °C 0.1 °C 1020.9 hPa NW 59.2 km/h 59.2 km/h 58 % 0.0 mm 14.0 W/m2
17:36 7.7 °C 0.2 °C 1020.9 hPa NW 44.4 km/h 44.4 km/h 59 % 0.0 mm 12.0 W/m2 OVC
17:41 7.6 °C 0.3 °C 1020.9 hPa NW 46.3 km/h 46.3 km/h 60 % 0.0 mm 9.0 W/m2 OVC
17:46 7.4 °C 0.4 °C 1020.9 hPa NW 35.4 km/h 35.4 km/h 61 % 0.0 mm 7.0 W/m2 OVC
17:51 7.3 °C 0.3 °C 1020.9 hPa NNW 33.3 km/h 33.3 km/h 61 % 0.0 mm 5.0 W/m2 OVC
17:56 7.2 °C 0.4 °C 1021.2 hPa NW 40.7 km/h 40.7 km/h 62 % 0.0 mm 0.0 W/m2 CLR
18:01 7.2 °C 0.7 °C 1021.2 hPa NW 42.6 km/h 42.6 km/h 63 % 0.0 mm 0.0 W/m2 CLR
18:06 7.2 °C 0.7 °C 1021.2 hPa NW 38.9 km/h 38.9 km/h 63 % 0.0 mm 0.0 W/m2 CLR
18:11 7.2 °C 0.8 °C 1021.2 hPa NNW 38.9 km/h 38.9 km/h 64 % 0.0 mm 0.0 W/m2 CLR
18:16 7.1 °C 0.6 °C 1021.2 hPa NW 44.4 km/h 44.4 km/h 63 % 0.0 mm 0.0 W/m2 CLR
18:21 7.1 °C 0.5 °C 1021.2 hPa NW 42.6 km/h 42.6 km/h 63 % 0.0 mm 0.0 W/m2 CLR
18:26 7.0 °C 0.4 °C 1021.2 hPa NW 38.9 km/h 38.9 km/h 63 % 0.0 mm 0.0 W/m2 CLR
18:31 6.9 °C 0.3 °C 1021.6 hPa NW 48.3 km/h 48.3 km/h 63 % 0.0 mm 0.0 W/m2 CLR
18:36 6.8 °C 0.5 °C 1021.6 hPa NW 48.1 km/h 48.1 km/h 64 % 0.0 mm 0.0 W/m2 CLR
18:41 6.8 °C 0.7 °C 1021.6 hPa NW 51.8 km/h 51.8 km/h 65 % 0.0 mm 0.0 W/m2 CLR
18:46 6.7 °C 0.6 °C 1021.6 hPa NNW 44.4 km/h 44.4 km/h 65 % 0.0 mm 0.0 W/m2 CLR
18:51 6.7 °C 0.6 °C 1021.6 hPa NW 51.5 km/h 51.5 km/h 65 % 0.0 mm 0.0 W/m2 CLR
18:56 6.7 °C 0.6 °C 1021.6 hPa NW 50.0 km/h 50.0 km/h 65 % 0.0 mm 0.0 W/m2 CLR
19:01 6.7 °C 0.8 °C 1021.6 hPa NW 46.3 km/h 46.3 km/h 66 % 0.0 mm 0.0 W/m2 CLR
19:06 6.7 °C 0.6 °C 1021.6 hPa NW 51.8 km/h 51.8 km/h 65 % 0.0 mm 0.0 W/m2 CLR
19:11 6.6 °C 0.7 °C 1021.9 hPa NW 53.7 km/h 53.7 km/h 66 % 0.0 mm 0.0 W/m2 CLR
19:16 6.6 °C 0.9 °C 1021.9 hPa NW 42.6 km/h 42.6 km/h 67 % 0.0 mm 0.0 W/m2 CLR
19:21 6.4 °C 1.1 °C 1022.2 hPa NW 32.2 km/h 32.2 km/h 69 % 0.0 mm 0.0 W/m2 CLR
19:26 6.3 °C 1.2 °C 1022.2 hPa NW 42.6 km/h 42.6 km/h 70 % 0.0 mm 0.0 W/m2 CLR
19:31 6.1 °C 1.2 °C 1022.2 hPa NW 37.0 km/h 37.0 km/h 71 % 0.0 mm 0.0 W/m2 CLR
19:36 6.1 °C 1.2 °C 1022.2 hPa NW 38.9 km/h 38.9 km/h 71 % 0.0 mm 0.0 W/m2 CLR
19:41 5.9 °C 1.1 °C 1022.2 hPa NW 38.9 km/h 38.9 km/h 71 % 0.0 mm 0.0 W/m2 CLR
19:46 5.9 °C 1.2 °C 1022.2 hPa NW 48.1 km/h 48.1 km/h 72 % 0.0 mm 0.0 W/m2 CLR
19:51 5.8 °C 1.2 °C 1022.2 hPa WNW 37.0 km/h 37.0 km/h 72 % 0.0 mm 0.0 W/m2 CLR
19:56 5.8 °C 1.2 °C 1022.2 hPa NW 42.6 km/h 42.6 km/h 72 % 0.0 mm 0.0 W/m2 CLR
20:01 5.9 °C 1.2 °C 1022.6 hPa NW 50.0 km/h 50.0 km/h 72 % 0.0 mm 0.0 W/m2 CLR
20:06 5.8 °C 1.2 °C 1022.6 hPa NW 31.5 km/h 31.5 km/h 72 % 0.0 mm 0.0 W/m2 CLR
20:11 5.8 °C 1.1 °C 1022.6 hPa NW 35.2 km/h 35.2 km/h 72 % 0.0 mm 0.0 W/m2 CLR
20:16 5.7 °C 1.0 °C 1022.2 hPa NW 25.9 km/h 25.9 km/h 72 % 0.0 mm 0.0 W/m2 CLR
20:21 5.6 °C 1.2 °C 1022.2 hPa NW 37.0 km/h 37.0 km/h 73 % 0.0 mm 0.0 W/m2 CLR
20:26 5.5 °C 1.1 °C 1022.2 hPa NW 31.5 km/h 31.5 km/h 73 % 0.0 mm 0.0 W/m2 CLR
20:31 5.5 °C 1.1 °C 1022.2 hPa WNW 42.6 km/h 42.6 km/h 73 % 0.0 mm 0.0 W/m2 CLR
20:36 5.5 °C 1.1 °C 1022.6 hPa NW 31.5 km/h 31.5 km/h 73 % 0.0 mm 0.0 W/m2 CLR
20:41 5.4 °C 1.0 °C 1022.6 hPa NW 35.4 km/h 35.4 km/h 73 % 0.0 mm 0.0 W/m2 CLR
20:46 5.4 °C 1.0 °C 1022.9 hPa NW 48.1 km/h 48.1 km/h 73 % 0.0 mm 0.0 W/m2 CLR
20:51 5.4 °C 1.0 °C 1022.9 hPa NW 31.5 km/h 31.5 km/h 73 % 0.0 mm 0.0 W/m2 CLR
20:56 5.3 °C 0.9 °C 1023.2 hPa NW 29.6 km/h 29.6 km/h 73 % 0.0 mm 0.0 W/m2 CLR
21:01 5.3 °C 0.9 °C 1022.9 hPa NW 29.0 km/h 29.0 km/h 73 % 0.0 mm 0.0 W/m2 CLR
21:06 5.3 °C 0.8 °C 1022.9 hPa NW 42.6 km/h 42.6 km/h 73 % 0.0 mm 0.0 W/m2 CLR
21:11 5.2 °C 0.9 °C 1022.9 hPa NW 37.0 km/h 37.0 km/h 74 % 0.0 mm 0.0 W/m2 CLR
21:16 5.2 °C 0.9 °C 1023.2 hPa NW 35.2 km/h 35.2 km/h 74 % 0.0 mm 0.0 W/m2 CLR
21:21 5.1 °C 0.8 °C 1022.9 hPa NW 24.1 km/h 24.1 km/h 74 % 0.0 mm 0.0 W/m2 CLR
21:26 5.1 °C 0.8 °C 1022.9 hPa NW 27.8 km/h 27.8 km/h 74 % 0.0 mm 0.0 W/m2 CLR
21:31 5.1 °C 0.8 °C 1022.9 hPa WNW 27.8 km/h 27.8 km/h 74 % 0.0 mm 0.0 W/m2 CLR
21:36 4.9 °C 0.7 °C 1023.2 hPa WNW 31.5 km/h 31.5 km/h 74 % 0.0 mm 0.0 W/m2 CLR
21:41 5.0 °C 0.7 °C 1023.2 hPa WNW 31.5 km/h 31.5 km/h 74 % 0.0 mm 0.0 W/m2 CLR
21:46 4.9 °C 0.8 °C 1023.2 hPa NW 35.2 km/h 35.2 km/h 75 % 0.0 mm 0.0 W/m2 CLR
21:51 4.9 °C 0.8 °C 1023.2 hPa NW 25.9 km/h 25.9 km/h 75 % 0.0 mm 0.0 W/m2 CLR
21:56 4.8 °C 0.9 °C 1023.2 hPa NW 33.3 km/h 33.3 km/h 76 % 0.0 mm 0.0 W/m2 CLR
22:01 4.8 °C 0.9 °C 1023.2 hPa NW 27.8 km/h 27.8 km/h 76 % 0.0 mm 0.0 W/m2 CLR
22:06 4.8 °C 0.9 °C 1023.2 hPa NW 31.5 km/h 31.5 km/h 76 % 0.0 mm 0.0 W/m2 CLR
22:11 4.8 °C 0.9 °C 1023.2 hPa NW 29.6 km/h 29.6 km/h 76 % 0.0 mm 0.0 W/m2 CLR
22:16 4.8 °C 0.9 °C 1023.6 hPa NW 20.9 km/h 20.9 km/h 76 % 0.0 mm 0.0 W/m2 CLR
22:21 4.9 °C 1.0 °C 1023.6 hPa NW 24.1 km/h 24.1 km/h 76 % 0.0 mm 0.0 W/m2 CLR
22:26 4.9 °C 1.2 °C 1023.6 hPa NW 29.6 km/h 29.6 km/h 77 % 0.0 mm 0.0 W/m2 CLR
22:31 4.8 °C 1.1 °C 1023.6 hPa NW 31.5 km/h 31.5 km/h 77 % 0.0 mm 0.0 W/m2 CLR
22:36 4.8 °C 1.1 °C 1023.6 hPa NW 29.0 km/h 29.0 km/h 77 % 0.0 mm 0.0 W/m2 CLR
22:41 4.6 °C 1.1 °C 1023.6 hPa NW 31.5 km/h 31.5 km/h 78 % 0.0 mm 0.0 W/m2 CLR
22:47 4.5 °C 1.0 °C 1023.6 hPa NW 22.2 km/h 22.2 km/h 78 % 0.0 mm 0.0 W/m2 CLR
22:52 4.4 °C 1.1 °C 1023.6 hPa WNW 18.5 km/h 20.8 km/h 79 % 0.0 mm 0.0 W/m2 CLR
22:57 4.3 °C 1.0 °C 1023.6 hPa WNW 24.1 km/h 24.1 km/h 79 % 0.0 mm 0.0 W/m2 CLR
23:02 4.3 °C 1.0 °C 1023.6 hPa NW 25.9 km/h 25.9 km/h 79 % 0.0 mm 0.0 W/m2 CLR
23:07 4.3 °C 0.9 °C 1023.6 hPa NW 25.9 km/h 25.9 km/h 79 % 0.0 mm 0.0 W/m2 CLR
23:12 4.2 °C 0.8 °C 1023.6 hPa WNW 20.9 km/h 20.9 km/h 79 % 0.0 mm 0.0 W/m2 CLR
23:17 4.1 °C 0.9 °C 1023.6 hPa WNW 41.8 km/h 41.8 km/h 80 % 0.0 mm 0.0 W/m2 CLR
23:22 4.2 °C 1.0 °C 1023.6 hPa NW 31.5 km/h 31.5 km/h 80 % 0.0 mm 0.0 W/m2 CLR
23:27 4.1 °C 0.9 °C 1023.9 hPa WNW 29.6 km/h 29.6 km/h 80 % 0.0 mm 0.0 W/m2 CLR
23:32 4.2 °C 1.0 °C 1023.9 hPa WNW 33.3 km/h 33.3 km/h 80 % 0.0 mm 0.0 W/m2 CLR
23:37 4.1 °C 0.9 °C 1023.9 hPa NW 33.3 km/h 33.3 km/h 80 % 0.0 mm 0.0 W/m2 CLR
23:42 4.2 °C 1.0 °C 1023.9 hPa NW 29.6 km/h 29.6 km/h 80 % 0.0 mm 0.0 W/m2 CLR
23:47 4.1 °C 0.9 °C 1024.3 hPa NW 25.9 km/h 25.9 km/h 80 % 0.0 mm 0.0 W/m2 CLR
23:52 4.1 °C 0.9 °C 1024.3 hPa NW 20.4 km/h 20.4 km/h 80 % 0.0 mm 0.0 W/m2 CLR
23:57 4.1 °C 0.9 °C 1024.3 hPa NW 27.8 km/h 27.8 km/h 80 % 0.0 mm 0.0 W/m2 CLR
Lo Temps de Massalio
Compliments of Weather Underground - 1.25 mb